Time;durP1;ratioP1;P1;durP2;ratioP2;P2;SDS_P1;SDS_P2;PMS_P1;PMS_P2;Temp;Humidity;BMP_temperature;BMP_pressure;BME280_temperature;BME280_humidity;BME280_pressure;Samples;Min_cycle;Max_cycle;Signal;HPM_P1;HPM_P2
2021/03/12 00:00:16;;;;;;;21.45;3.15;;;6.20;99.90;;;;;;6159319;23;20069;-83
2021/03/12 00:02:47;;;;;;;13.48;3.45;;;6.10;99.90;;;;;;6159156;23;20026;-84
2021/03/12 00:05:26;;;;;;;9.60;4.10;;;6.00;99.90;;;;;;6159433;23;20021;-83
2021/03/12 00:07:55;;;;;;;13.07;3.97;;;6.10;99.90;;;;;;6135828;23;20073;-80
2021/03/12 00:10:28;;;;;;;11.50;4.22;;;6.10;99.90;;;;;;6152970;23;20040;-83
2021/03/12 00:12:56;;;;;;;7.50;3.00;;;6.10;99.90;;;;;;6153866;23;20065;-84
2021/03/12 00:15:28;;;;;;;13.75;3.15;;;5.80;99.90;;;;;;6152634;23;20022;-82
2021/03/12 00:17:56;;;;;;;14.45;2.67;;;5.70;99.90;;;;;;6128357;23;20018;-84
2021/03/12 00:20:29;;;;;;;10.60;3.08;;;5.70;99.90;;;;;;6128917;23;20085;-83
2021/03/12 00:22:57;;;;;;;7.10;2.45;;;5.70;99.90;;;;;;6151653;23;20032;-83
2021/03/12 00:25:33;;;;;;;8.57;2.10;;;5.60;99.90;;;;;;6150796;23;20086;-84
2021/03/12 00:28:02;;;;;;;13.15;2.03;;;5.50;99.90;;;;;;6102210;23;20028;-82
2021/03/12 00:30:32;;;;;;;3.42;1.58;;;5.70;99.90;;;;;;6127941;23;20006;-82
2021/03/12 00:33:01;;;;;;;2.50;1.10;;;5.50;99.90;;;;;;6129024;23;20066;-83
2021/03/12 00:35:30;;;;;;;4.97;1.00;;;5.40;99.90;;;;;;6153700;23;20078;-81
2021/03/12 00:37:59;;;;;;;2.25;0.98;;;5.30;99.90;;;;;;6150342;23;20032;-82
2021/03/12 00:40:34;;;;;;;2.53;1.20;;;5.30;99.90;;;;;;6153559;23;20085;-82
2021/03/12 00:43:02;;;;;;;3.42;1.20;;;5.40;99.90;;;;;;6152084;23;20058;-82
2021/03/12 00:45:37;;;;;;;3.92;1.60;;;5.30;99.90;;;;;;6138740;23;20073;-81
2021/03/12 00:48:14;;;;;;;5.53;1.90;;;5.30;99.90;;;;;;6157460;23;20069;-81
2021/03/12 00:50:43;;;;;;;4.40;1.70;;;5.20;99.90;;;;;;6182196;23;20028;-82
2021/03/12 00:53:16;;;;;;;5.78;1.60;;;5.20;99.90;;;;;;6157700;23;20061;-83
2021/03/12 00:55:44;;;;;;;5.80;1.33;;;5.30;99.90;;;;;;6179704;23;20025;-80
2021/03/12 00:58:18;;;;;;;3.00;1.40;;;5.30;99.90;;;;;;6151689;23;20014;-82
2021/03/12 01:00:50;;;;;;;1.73;0.88;;;5.30;99.90;;;;;;6171944;23;20036;-82
2021/03/12 01:03:18;;;;;;;9.60;1.55;;;5.20;99.90;;;;;;6146530;23;20028;-82
2021/03/12 01:05:55;;;;;;;3.78;1.40;;;5.20;99.90;;;;;;6197371;23;20018;-82
2021/03/12 01:08:32;;;;;;;2.67;1.30;;;5.30;99.90;;;;;;6202124;23;20061;-83
2021/03/12 01:11:03;;;;;;;7.90;1.48;;;5.30;99.90;;;;;;6158249;23;20085;-82
2021/03/12 01:13:35;;;;;;;5.78;1.48;;;5.40;99.90;;;;;;6156765;23;20032;-83
2021/03/12 01:16:03;;;;;;;6.22;1.60;;;5.30;99.90;;;;;;6177394;23;20043;-80
2021/03/12 01:18:32;;;;;;;7.88;1.58;;;5.30;99.90;;;;;;6150003;23;20018;-80
2021/03/12 01:21:10;;;;;;;8.45;1.90;;;5.40;99.90;;;;;;6154644;23;20018;-84
2021/03/12 01:23:38;;;;;;;11.48;2.13;;;5.60;99.90;;;;;;6156993;23;20009;-84
2021/03/12 01:26:06;;;;;;;5.53;2.15;;;5.50;99.90;;;;;;6182482;23;20092;-84
2021/03/12 01:28:48;;;;;;;7.72;1.30;;;5.50;99.90;;;;;;6158608;23;20537;-85
2021/03/12 01:31:21;;;;;;;3.92;1.00;;;5.40;99.90;;;;;;6182189;23;20077;-83
2021/03/12 01:33:55;;;;;;;3.35;0.70;;;5.20;99.90;;;;;;6182517;23;20065;-83
2021/03/12 01:36:34;;;;;;;;;;;5.10;99.90;;;;;;6136099;23;20110;-84
2021/03/12 01:39:06;;;;;;;4.60;0.80;;;5.10;99.90;;;;;;6182081;23;19917;-84
2021/03/12 01:41:35;;;;;;;4.70;1.40;;;5.00;99.90;;;;;;6157416;23;20097;-83
2021/03/12 01:44:15;;;;;;;6.55;1.23;;;4.90;99.90;;;;;;6159467;23;20374;-83
2021/03/12 01:46:48;;;;;;;2.42;1.05;;;4.80;99.90;;;;;;6181516;23;20093;-83
2021/03/12 01:49:20;;;;;;;3.67;1.13;;;4.90;99.90;;;;;;6158528;23;20073;-83
2021/03/12 01:51:49;;;;;;;6.47;1.40;;;5.00;99.90;;;;;;6183658;23;20049;-83
2021/03/12 01:54:20;;;;;;;7.83;1.47;;;4.90;99.90;;;;;;6207329;23;20002;-83
2021/03/12 01:56:59;;;;;;;9.57;1.50;;;4.90;99.90;;;;;;6158845;23;20057;-84
2021/03/12 01:59:59;;;;;;;10.20;2.00;;;4.90;99.90;;;;;;6178035;23;20081;-83
2021/03/12 02:02:43;;;;;;;5.43;1.50;;;5.00;99.90;;;;;;6140498;23;20100;-82
2021/03/12 02:05:33;;;;;;;7.50;1.92;;;5.00;99.90;;;;;;6182853;23;20065;-82
2021/03/12 02:08:00;;;;;;;8.02;1.67;;;5.10;99.90;;;;;;6157643;23;20069;-83
2021/03/12 02:10:40;;;;;;;2.83;1.30;;;5.00;99.90;;;;;;6157471;23;20072;-83
2021/03/12 02:13:16;;;;;;;6.37;1.60;;;5.10;99.90;;;;;;6132500;23;20065;-81
2021/03/12 02:15:49;;;;;;;6.43;1.40;;;5.10;99.90;;;;;;6206549;23;20045;-82
2021/03/12 02:18:24;;;;;;;3.53;1.70;;;5.10;99.90;;;;;;6182392;23;20020;-83
2021/03/12 02:21:01;;;;;;;9.70;1.90;;;5.10;99.90;;;;;;6182551;23;20061;-84
2021/03/12 02:23:56;;;;;;;6.13;1.93;;;5.10;99.90;;;;;;6182411;23;20073;-82
2021/03/12 02:26:34;;;;;;;3.13;1.57;;;5.10;99.90;;;;;;6182271;23;20081;-83
2021/03/12 02:29:05;;;;;;;4.78;1.70;;;5.10;99.90;;;;;;6182557;23;20070;-84
2021/03/12 02:31:39;;;;;;;5.70;2.10;;;5.20;99.90;;;;;;6182838;23;20077;-83
2021/03/12 02:34:12;;;;;;;6.60;2.17;;;5.20;99.90;;;;;;6157794;23;20061;-83
2021/03/12 02:36:47;;;;;;;12.77;2.10;;;5.10;99.90;;;;;;6181956;23;20053;-83
2021/03/12 02:39:23;;;;;;;3.33;1.33;;;5.20;99.90;;;;;;6180990;23;20024;-84
2021/03/12 02:41:56;;;;;;;7.00;1.95;;;5.10;99.90;;;;;;6158169;23;20057;-83
2021/03/12 02:44:34;;;;;;;7.50;2.17;;;5.00;99.90;;;;;;6157660;23;20065;-85
2021/03/12 02:47:11;;;;;;;7.07;1.83;;;5.00;99.90;;;;;;6156388;23;20074;-84
2021/03/12 02:49:39;;;;;;;7.35;1.90;;;5.00;99.90;;;;;;6157662;23;20061;-86
2021/03/12 02:52:09;;;;;;;11.07;2.83;;;5.10;99.90;;;;;;6158458;23;20078;-86
2021/03/12 02:54:41;;;;;;;9.63;2.53;;;5.10;99.90;;;;;;6182657;23;20112;-85
2021/03/12 02:57:10;;;;;;;8.10;2.28;;;5.10;99.90;;;;;;6181054;23;20006;-85
2021/03/12 02:59:39;;;;;;;6.63;2.05;;;5.00;99.90;;;;;;6156141;23;20017;-84
2021/03/12 03:02:33;;;;;;;7.88;1.98;;;5.10;99.90;;;;;;6135270;23;20021;-82
2021/03/12 03:05:14;;;;;;;6.25;1.92;;;5.10;99.90;;;;;;6177830;23;20039;-84
2021/03/12 03:07:50;;;;;;;4.32;1.65;;;5.10;99.90;;;;;;6155465;23;20073;-83
2021/03/12 03:10:24;;;;;;;5.90;1.90;;;5.10;99.90;;;;;;6156223;23;20061;-84
2021/03/12 03:12:57;;;;;;;6.75;2.38;;;5.10;99.90;;;;;;6181189;23;20026;-85
2021/03/12 03:15:27;;;;;;;11.05;2.25;;;5.20;99.90;;;;;;6156626;23;20520;-86
2021/03/12 03:18:01;;;;;;;6.85;2.03;;;5.20;99.90;;;;;;6182078;23;20049;-84
2021/03/12 03:20:40;;;;;;;6.82;1.67;;;5.10;99.90;;;;;;6182402;23;20073;-83
2021/03/12 03:23:14;;;;;;;4.78;1.55;;;5.10;99.90;;;;;;6207389;23;20012;-84
2021/03/12 03:25:45;;;;;;;8.55;2.40;;;5.00;99.90;;;;;;6156131;23;20061;-82
2021/03/12 03:28:20;;;;;;;8.75;2.17;;;5.00;99.90;;;;;;6155069;23;20069;-82
2021/03/12 03:30:49;;;;;;;11.07;2.80;;;5.00;99.90;;;;;;6155209;23;20021;-82
2021/03/12 03:33:19;;;;;;;5.73;2.33;;;5.00;99.90;;;;;;6155626;23;20026;-82
2021/03/12 03:35:47;;;;;;;9.38;3.25;;;5.10;99.90;;;;;;6155424;23;20002;-82
2021/03/12 03:38:16;;;;;;;7.32;3.08;;;5.00;99.90;;;;;;6154243;23;20001;-82
2021/03/12 03:40:44;;;;;;;11.20;2.75;;;5.00;99.90;;;;;;6154065;23;20011;-83
2021/03/12 03:43:14;;;;;;;13.02;2.67;;;5.10;99.90;;;;;;6153117;23;20017;-82
2021/03/12 03:45:43;;;;;;;4.20;1.75;;;5.10;99.90;;;;;;6178865;23;20028;-82
2021/03/12 03:48:24;;;;;;;13.57;3.03;;;5.20;99.90;;;;;;6157823;23;20018;-83
2021/03/12 03:50:52;;;;;;;7.28;2.53;;;5.10;99.90;;;;;;6182138;23;20021;-82
2021/03/12 03:53:24;;;;;;;6.45;2.38;;;5.10;99.90;;;;;;6158013;23;20500;-83
2021/03/12 03:55:53;;;;;;;8.93;2.72;;;5.10;99.90;;;;;;6180235;23;20040;-83
2021/03/12 03:58:24;;;;;;;6.82;2.63;;;5.10;99.90;;;;;;6182358;23;20017;-83
2021/03/12 04:00:53;;;;;;;5.50;2.05;;;5.10;99.90;;;;;;6181284;23;20036;-84
2021/03/12 04:03:27;;;;;;;7.32;2.42;;;5.20;99.90;;;;;;6155695;23;20022;-83
2021/03/12 04:06:05;;;;;;;12.93;2.13;;;5.20;99.90;;;;;;6206379;23;20016;-85
2021/03/12 04:08:41;;;;;;;6.90;1.80;;;5.20;99.90;;;;;;6158994;23;20311;-84
2021/03/12 04:11:16;;;;;;;9.43;2.53;;;5.10;99.90;;;;;;6183103;23;20057;-85
2021/03/12 04:13:53;;;;;;;6.60;1.77;;;5.10;99.90;;;;;;6158485;23;20065;-85
2021/03/12 04:16:36;;;;;;;5.85;1.80;;;5.10;99.90;;;;;;6161074;23;20069;-84
2021/03/12 04:19:15;;;;;;;5.95;1.70;;;5.10;99.90;;;;;;6159514;23;20018;-84
2021/03/12 04:21:49;;;;;;;7.05;2.15;;;4.90;99.90;;;;;;6158859;23;20072;-84
2021/03/12 04:24:22;;;;;;;4.35;2.05;;;5.00;99.90;;;;;;6159618;23;20072;-84
2021/03/12 04:27:02;;;;;;;6.93;2.40;;;5.00;99.90;;;;;;6160277;23;20053;-85
2021/03/12 04:29:31;;;;;;;8.27;2.47;;;4.90;99.90;;;;;;6184148;23;20008;-85
2021/03/12 04:32:04;;;;;;;8.57;2.53;;;4.90;99.90;;;;;;6249358;22;20051;-85
2021/03/12 04:34:37;;;;;;;5.95;2.00;;;4.90;99.90;;;;;;6249604;22;20087;-85
2021/03/12 04:37:17;;;;;;;7.10;1.83;;;4.90;99.90;;;;;;6249570;22;20060;-84
2021/03/12 04:39:49;;;;;;;6.35;1.67;;;4.80;99.90;;;;;;6249341;22;20055;-85
2021/03/12 04:42:27;;;;;;;5.82;1.77;;;4.80;99.90;;;;;;6249009;23;20043;-86
2021/03/12 04:44:58;;;;;;;3.97;1.45;;;4.80;99.90;;;;;;6248071;22;20044;-86
2021/03/12 04:47:42;;;;;;;5.32;1.30;;;4.80;99.90;;;;;;6249213;22;20076;-85
2021/03/12 04:50:16;;;;;;;2.75;1.33;;;4.90;99.90;;;;;;6250319;22;20068;-85
2021/03/12 04:52:56;;;;;;;2.30;1.20;;;4.80;99.90;;;;;;6249272;22;20064;-86
2021/03/12 04:55:49;;;;;;;3.38;1.20;;;4.80;99.90;;;;;;6249381;22;20102;-86
2021/03/12 04:58:29;;;;;;;4.13;1.23;;;4.80;99.90;;;;;;6249666;22;20031;-86
2021/03/12 05:01:01;;;;;;;2.88;1.30;;;4.90;99.90;;;;;;6248420;23;20071;-86
2021/03/12 05:03:34;;;;;;;5.90;1.42;;;4.90;99.90;;;;;;6250000;22;20071;-84
2021/03/12 05:06:19;;;;;;;4.18;1.40;;;4.90;99.90;;;;;;6250766;22;20068;-85
2021/03/12 05:09:05;;;;;;;4.47;1.55;;;4.90;99.90;;;;;;6218904;22;20072;-84
2021/03/12 05:11:43;;;;;;;4.88;1.90;;;4.90;99.90;;;;;;6219288;23;20076;-85
2021/03/12 05:14:22;;;;;;;3.43;1.17;;;4.90;99.90;;;;;;6219123;23;20053;-84
2021/03/12 05:19:53;;;;;;;3.43;0.90;;;4.90;99.90;;;;;;6196728;23;20029;-84
2021/03/12 05:22:30;;;;;;;3.92;1.42;;;4.90;99.90;;;;;;6189277;23;20056;-85
2021/03/12 05:25:07;;;;;;;8.38;1.55;;;4.80;99.90;;;;;;6188861;23;20098;-84
2021/03/12 05:27:43;;;;;;;2.45;0.98;;;4.80;99.90;;;;;;6213714;22;20044;-86
2021/03/12 05:30:16;;;;;;;4.53;1.40;;;4.80;99.90;;;;;;6189330;23;20057;-86
2021/03/12 05:32:54;;;;;;;4.47;1.63;;;4.70;99.90;;;;;;6188573;23;20065;-84
2021/03/12 05:35:38;;;;;;;1.90;1.20;;;4.80;99.90;;;;;;6213174;23;20092;-85
2021/03/12 05:38:22;;;;;;;1.35;0.73;;;4.80;99.90;;;;;;6188606;23;20076;-84
2021/03/12 05:49:51;;;;;;;5.20;2.17;;;4.70;99.90;;;;;;6200263;23;20009;-87
2021/03/12 05:52:24;;;;;;;5.53;1.20;;;4.70;99.90;;;;;;6163753;23;20048;-86
2021/03/12 05:55:01;;;;;;;5.80;2.08;;;4.80;99.90;;;;;;6163670;23;20100;-85
2021/03/12 06:00:29;;;;;;;8.38;2.30;;;4.90;99.90;;;;;;6168326;23;20017;-85
2021/03/12 06:03:08;;;;;;;11.50;2.47;;;4.90;99.90;;;;;;6135388;23;20065;-87
2021/03/12 06:08:44;;;;;;;11.30;2.67;;;4.90;99.90;;;;;;6164152;23;20018;-86
2021/03/12 06:11:33;;;;;;;5.88;2.55;;;4.90;99.90;;;;;;6133714;23;20081;-84
2021/03/12 06:14:03;;;;;;;4.68;2.10;;;4.90;99.90;;;;;;6130745;23;20009;-86
2021/03/12 06:16:53;;;;;;;5.22;2.70;;;5.00;99.90;;;;;;6182313;23;20057;-87
2021/03/12 06:22:34;;;;;;;7.93;2.65;;;4.90;99.90;;;;;;6153484;23;19964;-87
2021/03/12 06:25:17;;;;;;;5.70;2.22;;;5.00;99.90;;;;;;6104372;23;20069;-86
2021/03/12 06:31:23;;;;;;;6.50;2.28;;;5.10;99.90;;;;;;6183065;23;20112;-85
2021/03/12 06:34:17;;;;;;;8.07;2.60;;;5.10;99.90;;;;;;6133141;23;20073;-84
2021/03/12 06:37:31;;;;;;;10.18;3.97;;;5.10;99.90;;;;;;6123962;23;20008;-85
2021/03/12 06:40:30;;;;;;;10.23;3.72;;;5.30;99.90;;;;;;6131107;23;20014;-86
2021/03/12 06:43:16;;;;;;;6.97;3.20;;;5.30;99.90;;;;;;6134053;23;20053;-86
2021/03/12 06:46:03;;;;;;;15.10;3.75;;;5.20;99.90;;;;;;6135449;23;20044;-86
2021/03/12 06:54:30;;;;;;;6.35;3.40;;;5.10;99.90;;;;;;6163712;23;20061;-85
2021/03/12 07:00:11;;;;;;;6.70;1.85;;;5.10;99.90;;;;;;6211228;23;20009;-84
2021/03/12 07:02:49;;;;;;;4.03;1.90;;;5.20;99.90;;;;;;6183219;23;20020;-83
2021/03/12 07:08:40;;;;;;;3.58;1.75;;;5.20;99.90;;;;;;6213465;23;20056;-85
2021/03/12 07:11:30;;;;;;;5.73;1.53;;;5.30;99.90;;;;;;6150819;23;20019;-85
2021/03/12 07:14:21;;;;;;;3.55;1.60;;;5.30;99.90;;;;;;6158571;23;20089;-84
2021/03/12 07:17:00;;;;;;;4.72;1.65;;;5.50;99.90;;;;;;6134516;23;20057;-85
2021/03/12 07:19:36;;;;;;;5.32;1.67;;;5.60;99.90;;;;;;6159370;23;20061;-85
2021/03/12 07:22:13;;;;;;;6.13;2.05;;;5.70;99.90;;;;;;6160539;23;20057;-83
2021/03/12 07:25:02;;;;;;;1.85;0.75;;;5.80;99.90;;;;;;6159838;23;20069;-84
2021/03/12 07:27:55;;;;;;;6.82;1.80;;;6.10;99.90;;;;;;6136266;23;20097;-84
2021/03/12 07:30:34;;;;;;;5.45;1.80;;;6.10;99.90;;;;;;6132116;23;20054;-85
2021/03/12 07:36:02;;;;;;;6.68;1.85;;;6.00;99.90;;;;;;6209469;23;20009;-86
2021/03/12 07:38:54;;;;;;;7.82;1.63;;;6.00;99.90;;;;;;6165350;23;20110;-86
2021/03/12 07:41:27;;;;;;;5.32;1.48;;;6.10;99.90;;;;;;6132955;23;20040;-83
2021/03/12 07:44:15;;;;;;;1.73;0.68;;;6.30;99.90;;;;;;6105805;23;20063;-83
2021/03/12 07:47:18;;;;;;;3.15;1.00;;;6.50;99.90;;;;;;6101510;23;20090;-85
2021/03/12 07:49:47;;;;;;;3.45;1.08;;;6.50;99.90;;;;;;6119005;23;20020;-84
2021/03/12 08:01:46;;;;;;;3.33;0.85;;;6.60;99.90;;;;;;6190838;23;20025;-85
2021/03/12 08:07:36;;;;;;;7.95;1.15;;;6.90;99.90;;;;;;6153027;23;20017;-82
2021/03/12 08:16:05;;;;;;;;;;;7.10;99.90;;;;;;6151043;23;19911;-84
2021/03/12 08:36:31;;;;;;;5.95;1.23;;;7.40;99.90;;;;;;6179430;23;20026;-86
2021/03/12 08:42:01;;;;;;;5.40;1.38;;;7.60;99.90;;;;;;6164094;23;20190;-85
2021/03/12 08:44:42;;;;;;;2.65;0.80;;;7.70;99.90;;;;;;6134466;23;20057;-85
2021/03/12 08:47:39;;;;;;;7.55;1.70;;;7.80;99.90;;;;;;6119095;23;20027;-76
2021/03/12 08:50:10;;;;;;;3.28;1.10;;;8.20;99.90;;;;;;6116503;23;20018;-74
2021/03/12 08:52:47;;;;;;;5.15;1.65;;;8.60;99.90;;;;;;6130249;23;20028;-84
2021/03/12 08:55:45;;;;;;;8.93;1.40;;;8.40;99.90;;;;;;6134016;23;20060;-85
2021/03/12 09:07:05;;;;;;;5.20;1.00;;;8.00;99.90;;;;;;6178833;23;20025;-83
2021/03/12 09:09:48;;;;;;;4.07;1.02;;;8.00;99.90;;;;;;6158459;23;20069;-84
2021/03/12 09:12:34;;;;;;;7.70;1.20;;;8.20;99.90;;;;;;6132884;23;20065;-83
2021/03/12 09:15:29;;;;;;;4.75;1.15;;;8.20;99.90;;;;;;6129672;23;20072;-85
2021/03/12 09:18:06;;;;;;;5.57;1.30;;;8.20;99.90;;;;;;6134051;23;20074;-83
2021/03/12 09:20:37;;;;;;;6.22;1.30;;;8.20;99.90;;;;;;6132095;23;20017;-86
2021/03/12 09:23:15;;;;;;;5.32;1.10;;;8.40;99.90;;;;;;6132307;23;20081;-86
2021/03/12 09:25:57;;;;;;;4.22;1.02;;;8.50;99.90;;;;;;6130156;23;20021;-84
2021/03/12 09:28:30;;;;;;;1.20;0.50;;;8.40;99.90;;;;;;6129205;23;20021;-84
2021/03/12 09:31:12;;;;;;;5.20;1.27;;;8.50;99.90;;;;;;6156573;23;20032;-85
2021/03/12 09:33:48;;;;;;;4.03;0.75;;;8.80;99.90;;;;;;6156799;23;20021;-85
2021/03/12 09:36:51;;;;;;;4.40;0.82;;;8.90;99.40;;;;;;6134370;23;20070;-85
2021/03/12 09:45:25;;;;;;;4.53;1.55;;;8.80;94.80;;;;;;6197103;23;20005;-86
2021/03/12 09:48:03;;;;;;;4.55;0.90;;;8.80;95.00;;;;;;6186785;23;20060;-85
2021/03/12 09:50:35;;;;;;;3.78;1.10;;;8.80;94.70;;;;;;6170875;23;20032;-81
2021/03/12 09:53:12;;;;;;;7.25;1.58;;;8.80;95.90;;;;;;6146591;23;20018;-81
2021/03/12 09:55:56;;;;;;;3.58;1.00;;;8.80;94.40;;;;;;6124165;23;20024;-81
2021/03/12 09:58:31;;;;;;;0.57;0.30;;;8.90;94.90;;;;;;6124523;23;20530;-81
2021/03/12 10:01:26;;;;;;;6.85;1.25;;;8.70;94.70;;;;;;6118496;23;20002;-81
2021/03/12 10:04:19;;;;;;;15.20;1.65;;;8.60;94.90;;;;;;6124634;23;20025;-81
2021/03/12 10:07:00;;;;;;;0.95;0.40;;;8.70;94.90;;;;;;6124882;23;20032;-81
2021/03/12 10:09:29;;;;;;;3.60;1.27;;;8.70;95.50;;;;;;6123993;23;20022;-82
2021/03/12 10:12:39;;;;;;;3.53;0.80;;;8.60;96.60;;;;;;6120172;23;20022;-81
2021/03/12 10:15:12;;;;;;;3.35;1.00;;;8.80;96.10;;;;;;6134992;23;20018;-81
2021/03/12 10:18:03;;;;;;;4.93;1.23;;;8.40;96.80;;;;;;6161592;23;20017;-81
2021/03/12 10:20:39;;;;;;;5.22;0.77;;;8.50;97.80;;;;;;6136498;23;20028;-81
2021/03/12 10:23:14;;;;;;;1.75;0.77;;;8.60;96.20;;;;;;6112595;23;20032;-82
2021/03/12 10:25:45;;;;;;;10.07;1.55;;;8.90;95.90;;;;;;6113578;23;20021;-81
2021/03/12 10:28:15;;;;;;;7.07;0.85;;;8.70;95.20;;;;;;6120690;23;20021;-81
2021/03/12 10:30:45;;;;;;;10.07;1.20;;;8.80;95.70;;;;;;6110835;23;20028;-81
2021/03/12 10:33:21;;;;;;;2.35;0.65;;;9.00;95.40;;;;;;6113895;23;20475;-80
2021/03/12 10:35:50;;;;;;;8.20;1.05;;;8.90;93.80;;;;;;6093881;23;20031;-81
2021/03/12 10:38:19;;;;;;;5.80;1.40;;;9.10;94.00;;;;;;6125645;23;20017;-81
2021/03/12 10:40:50;;;;;;;5.22;1.27;;;9.20;93.50;;;;;;6149336;23;20017;-81
2021/03/12 10:43:20;;;;;;;7.72;1.50;;;9.20;92.40;;;;;;6139140;23;20032;-80
2021/03/12 10:45:51;;;;;;;7.72;1.20;;;9.30;92.70;;;;;;6163077;23;20032;-80
2021/03/12 10:48:26;;;;;;;7.68;1.45;;;9.40;91.70;;;;;;6138074;23;20035;-81
2021/03/12 10:50:55;;;;;;;4.75;1.30;;;9.50;91.90;;;;;;6114410;23;20040;-81
2021/03/12 10:53:24;;;;;;;6.75;1.20;;;9.50;91.30;;;;;;6122568;23;20024;-83
2021/03/12 10:55:53;;;;;;;8.65;1.33;;;9.50;90.00;;;;;;6154222;23;20017;-83
2021/03/12 10:58:27;;;;;;;4.95;1.20;;;9.60;90.70;;;;;;6119407;23;20113;-88
2021/03/12 11:01:08;;;;;;;6.95;1.08;;;9.60;87.40;;;;;;6110622;23;20029;-88
2021/03/12 11:03:42;;;;;;;11.18;1.38;;;9.40;83.10;;;;;;6144973;23;20006;-83
2021/03/12 11:06:11;;;;;;;3.38;1.20;;;9.40;86.80;;;;;;6183327;23;20053;-83
2021/03/12 11:08:41;;;;;;;12.07;1.45;;;9.30;86.30;;;;;;6127810;23;20018;-82
2021/03/12 11:11:10;;;;;;;7.30;1.50;;;9.20;89.20;;;;;;6167523;23;20018;-81
2021/03/12 11:13:40;;;;;;;6.00;1.38;;;9.20;89.10;;;;;;6119366;23;20028;-81
2021/03/12 11:16:08;;;;;;;2.08;0.82;;;9.20;88.90;;;;;;6120626;23;20031;-82
2021/03/12 11:18:36;;;;;;;6.00;1.38;;;9.30;88.70;;;;;;6119372;23;20441;-82
2021/03/12 11:21:06;;;;;;;3.15;0.70;;;9.30;85.60;;;;;;6165739;23;20028;-81
2021/03/12 11:23:34;;;;;;;2.88;1.02;;;9.30;82.90;;;;;;6120138;23;20022;-81
2021/03/12 11:26:03;;;;;;;6.20;1.20;;;9.20;82.00;;;;;;6117267;23;20021;-81
2021/03/12 11:28:30;;;;;;;8.00;1.63;;;9.20;81.80;;;;;;6116803;23;20024;-81
2021/03/12 11:31:01;;;;;;;11.68;1.48;;;9.30;81.40;;;;;;6118960;23;20021;-81
2021/03/12 11:33:31;;;;;;;3.65;1.23;;;9.50;79.20;;;;;;6126250;23;20021;-82
2021/03/12 11:36:00;;;;;;;5.00;1.17;;;9.60;74.90;;;;;;6123206;23;20434;-82
2021/03/12 11:38:29;;;;;;;2.17;1.08;;;9.30;76.90;;;;;;6122537;23;20036;-81
2021/03/12 11:40:56;;;;;;;11.60;1.73;;;9.00;76.80;;;;;;6121140;23;20028;-81
2021/03/12 11:43:24;;;;;;;17.08;1.73;;;9.00;79.00;;;;;;6119415;23;20030;-81
2021/03/12 11:45:54;;;;;;;4.90;1.20;;;9.10;79.40;;;;;;6146187;23;20039;-82
2021/03/12 11:48:23;;;;;;;6.32;1.10;;;9.40;74.60;;;;;;6119860;23;20025;-83
2021/03/12 11:50:52;;;;;;;5.60;1.20;;;9.60;74.00;;;;;;6113685;23;20029;-81
2021/03/12 11:53:20;;;;;;;8.50;1.38;;;9.70;71.50;;;;;;6111290;23;20025;-80
2021/03/12 11:55:49;;;;;;;6.85;1.10;;;9.70;72.80;;;;;;6134497;23;20309;-81
2021/03/12 11:58:16;;;;;;;2.70;0.87;;;9.60;73.20;;;;;;6109955;23;20017;-80
2021/03/12 12:00:43;;;;;;;8.27;1.23;;;9.60;73.10;;;;;;6113005;23;20028;-80
2021/03/12 12:03:11;;;;;;;4.72;0.98;;;9.50;72.70;;;;;;6141450;23;20022;-80
2021/03/12 12:05:38;;;;;;;5.55;1.00;;;9.60;69.60;;;;;;6138300;23;20029;-81
2021/03/12 12:08:06;;;;;;;3.88;1.00;;;9.50;69.50;;;;;;6114089;23;20027;-81
2021/03/12 12:10:33;;;;;;;4.03;1.10;;;9.70;68.70;;;;;;6122716;23;20024;-81
2021/03/12 12:13:02;;;;;;;4.20;0.88;;;9.90;69.20;;;;;;6172340;23;20032;-80
2021/03/12 12:15:30;;;;;;;2.17;0.52;;;9.90;68.30;;;;;;6115147;23;20299;-81
2021/03/12 12:18:00;;;;;;;3.70;0.65;;;9.80;67.30;;;;;;6137968;23;20420;-82
2021/03/12 12:20:28;;;;;;;2.95;1.13;;;9.70;66.60;;;;;;6111447;23;20021;-80
2021/03/12 12:22:59;;;;;;;4.93;1.48;;;9.60;66.00;;;;;;6111761;23;20456;-80
2021/03/12 12:25:30;;;;;;;6.10;1.33;;;9.70;65.90;;;;;;6110856;23;20021;-81
2021/03/12 12:27:58;;;;;;;2.63;1.00;;;9.80;64.90;;;;;;6110709;23;20321;-81
2021/03/12 12:30:27;;;;;;;8.80;0.93;;;10.00;65.10;;;;;;6132445;23;20314;-81
2021/03/12 12:32:55;;;;;;;7.60;1.08;;;10.30;63.80;;;;;;6110550;23;20021;-80
2021/03/12 12:35:23;;;;;;;6.18;1.08;;;10.20;64.10;;;;;;6120785;23;20078;-83
2021/03/12 12:37:51;;;;;;;5.50;2.03;;;10.20;64.40;;;;;;6127576;23;20036;-81
2021/03/12 12:40:24;;;;;;;5.78;1.40;;;10.10;65.00;;;;;;6148225;23;20018;-83
2021/03/12 12:42:51;;;;;;;4.22;0.88;;;10.20;64.40;;;;;;6123015;23;20043;-80
2021/03/12 12:45:19;;;;;;;6.88;1.67;;;10.10;65.90;;;;;;6134206;23;20437;-81
2021/03/12 12:47:50;;;;;;;9.35;1.85;;;10.10;66.20;;;;;;6135716;23;20018;-80
2021/03/12 12:50:18;;;;;;;5.80;1.10;;;10.30;66.30;;;;;;6118109;23;20035;-80
2021/03/12 12:52:45;;;;;;;8.40;1.37;;;10.20;66.80;;;;;;6151159;23;20022;-80
2021/03/12 12:55:14;;;;;;;14.00;0.80;;;10.20;65.30;;;;;;6110863;23;20262;-80
2021/03/12 12:57:45;;;;;;;1.73;0.38;;;10.30;63.40;;;;;;6135630;23;20032;-79
2021/03/12 13:00:17;;;;;;;3.92;1.33;;;10.20;62.70;;;;;;6136945;23;20021;-83
2021/03/12 13:02:45;;;;;;;5.03;1.40;;;10.40;63.30;;;;;;6136405;23;20295;-80
2021/03/12 13:05:15;;;;;;;2.22;0.98;;;10.70;63.10;;;;;;6135558;23;20299;-79
2021/03/12 13:07:46;;;;;;;5.00;1.48;;;11.10;62.80;;;;;;6134827;23;20333;-83
2021/03/12 13:10:17;;;;;;;3.47;0.80;;;11.30;63.50;;;;;;6135568;23;20018;-80
2021/03/12 13:12:45;;;;;;;4.57;0.63;;;11.40;63.10;;;;;;6110849;23;20017;-79
2021/03/12 13:15:13;;;;;;;5.53;1.02;;;11.00;60.90;;;;;;6113035;23;20035;-79
2021/03/12 13:17:40;;;;;;;2.75;0.85;;;10.60;61.40;;;;;;6136878;23;20041;-79
2021/03/12 13:20:11;;;;;;;4.78;1.00;;;10.70;59.20;;;;;;6137220;23;20325;-80
2021/03/12 13:22:42;;;;;;;8.50;0.73;;;11.10;59.00;;;;;;6161237;23;20360;-81
2021/03/12 13:25:10;;;;;;;2.63;0.80;;;11.70;57.60;;;;;;6131954;23;20081;-79
2021/03/12 13:27:40;;;;;;;3.13;1.48;;;12.20;56.60;;;;;;6110217;23;20263;-80
2021/03/12 13:30:10;;;;;;;2.78;0.60;;;11.70;56.00;;;;;;6122114;23;20021;-78
2021/03/12 13:32:38;;;;;;;6.13;1.48;;;11.50;56.70;;;;;;6162890;23;20321;-79
2021/03/12 13:35:07;;;;;;;8.53;1.60;;;11.80;57.00;;;;;;6136584;23;20370;-80
2021/03/12 13:37:35;;;;;;;5.53;1.23;;;12.20;56.70;;;;;;6108551;23;20031;-82
2021/03/12 13:40:09;;;;;;;4.22;1.20;;;13.10;53.50;;;;;;6106046;23;20021;-82
2021/03/12 13:42:37;;;;;;;6.63;1.40;;;13.70;52.30;;;;;;6106686;23;20021;-80
2021/03/12 13:45:09;;;;;;;3.33;0.93;;;13.00;52.50;;;;;;6133925;23;20041;-80
2021/03/12 13:47:39;;;;;;;6.00;1.27;;;12.60;52.40;;;;;;6132473;23;20018;-80
2021/03/12 13:50:10;;;;;;;1.55;0.45;;;11.40;56.30;;;;;;6110228;23;20029;-80
2021/03/12 13:52:38;;;;;;;6.55;2.03;;;11.20;57.10;;;;;;6133451;23;20039;-80
2021/03/12 13:55:12;;;;;;;1.67;0.60;;;11.20;58.30;;;;;;6110426;23;20037;-80
2021/03/12 13:57:42;;;;;;;6.85;1.15;;;11.10;58.20;;;;;;6133899;23;20027;-80
2021/03/12 14:00:12;;;;;;;4.00;0.80;;;10.80;59.90;;;;;;6110942;23;20017;-80
2021/03/12 14:02:40;;;;;;;2.17;0.80;;;11.20;58.30;;;;;;6111195;23;20017;-80
2021/03/12 14:05:11;;;;;;;3.83;1.08;;;11.50;57.50;;;;;;6113129;23;20027;-80
2021/03/12 14:07:39;;;;;;;2.67;0.75;;;11.30;58.20;;;;;;6111295;23;20024;-81
2021/03/12 14:10:12;;;;;;;4.38;0.98;;;11.00;58.80;;;;;;6111855;23;20329;-80
2021/03/12 14:12:41;;;;;;;6.50;1.60;;;10.90;59.80;;;;;;6111807;23;20013;-81
2021/03/12 14:15:11;;;;;;;4.45;1.23;;;10.90;60.00;;;;;;6159437;23;20032;-81
2021/03/12 14:17:39;;;;;;;4.88;1.08;;;11.10;59.90;;;;;;6137904;23;20022;-79
2021/03/12 14:20:08;;;;;;;3.25;1.08;;;11.50;58.30;;;;;;6114758;23;20017;-80
2021/03/12 14:22:35;;;;;;;3.72;1.02;;;11.80;57.30;;;;;;6109423;23;20033;-80
2021/03/12 14:25:06;;;;;;;3.97;1.00;;;12.30;56.60;;;;;;6110449;23;20077;-80
2021/03/12 14:27:53;;;;;;;3.72;0.70;;;12.60;55.30;;;;;;6161949;23;20021;-79
2021/03/12 14:30:22;;;;;;;2.95;0.85;;;12.90;54.60;;;;;;6162757;23;20045;-79
2021/03/12 14:32:50;;;;;;;3.88;0.70;;;12.10;56.10;;;;;;6111046;23;20018;-81
2021/03/12 14:35:18;;;;;;;2.90;0.70;;;12.10;56.20;;;;;;6123096;23;20033;-81
2021/03/12 14:37:45;;;;;;;5.22;1.05;;;12.50;55.10;;;;;;6145422;23;20028;-80
2021/03/12 14:40:13;;;;;;;4.47;1.10;;;12.50;54.20;;;;;;6133791;23;20029;-80
2021/03/12 14:42:42;;;;;;;8.00;1.60;;;12.00;55.40;;;;;;6109563;23;20036;-79
2021/03/12 14:45:12;;;;;;;2.20;0.82;;;11.60;55.80;;;;;;6157545;23;20025;-80
2021/03/12 14:48:00;;;;;;;2.63;0.90;;;11.70;55.30;;;;;;6158662;23;20018;-80
2021/03/12 14:50:30;;;;;;;8.40;1.05;;;12.40;54.10;;;;;;6135757;23;20021;-80
2021/03/12 14:52:59;;;;;;;1.60;0.43;;;13.30;52.70;;;;;;6111902;23;20013;-80
2021/03/12 14:55:27;;;;;;;2.45;0.90;;;13.60;49.80;;;;;;6115155;23;20018;-79
2021/03/12 14:57:55;;;;;;;5.13;1.23;;;13.40;50.40;;;;;;6136672;23;20025;-81
2021/03/12 15:00:27;;;;;;;3.53;0.70;;;14.00;48.80;;;;;;6111506;23;20028;-82
2021/03/12 15:03:01;;;;;;;6.43;1.08;;;13.10;50.30;;;;;;6114384;23;20456;-81
2021/03/12 15:05:33;;;;;;;5.07;1.00;;;12.80;51.60;;;;;;6112224;23;20094;-81